createdAt,value
2019-02-08T00:00:51.369Z,75.40
2019-02-08T00:03:17.768Z,75.10
2019-02-08T00:05:44.239Z,75.60
2019-02-08T00:08:10.564Z,75.80
2019-02-08T00:10:37.304Z,75.60
2019-02-08T00:13:03.665Z,75.80
2019-02-08T00:15:30.177Z,75.40
2019-02-08T00:17:56.627Z,75.70
2019-02-08T00:20:23.283Z,75.70
2019-02-08T00:22:49.785Z,75.80
2019-02-08T00:25:19.883Z,75.80
2019-02-08T00:27:46.287Z,76.10
2019-02-08T00:30:22.577Z,75.50
2019-02-08T00:32:49.245Z,75.70
2019-02-08T00:35:15.768Z,75.60
2019-02-08T00:37:42.442Z,75.90
2019-02-08T00:40:11.759Z,75.80
2019-02-08T00:42:38.363Z,76.10
2019-02-08T00:45:08.489Z,75.90
2019-02-08T00:47:35.318Z,76.10
2019-02-08T00:50:03.630Z,76.40
2019-02-08T00:52:30.006Z,76.40
2019-02-08T00:54:56.336Z,76.30
2019-02-08T00:57:22.637Z,76.40
2019-02-08T00:59:48.997Z,75.80
2019-02-08T01:02:15.674Z,75.90
2019-02-08T01:04:41.965Z,76.10
2019-02-08T01:07:09.110Z,75.20
2019-02-08T01:09:35.768Z,75.30
2019-02-08T01:12:02.182Z,75.20
2019-02-08T01:14:28.425Z,75.30
2019-02-08T01:16:54.767Z,75.20
2019-02-08T01:19:21.418Z,75.20
2019-02-08T01:21:47.717Z,75.60
2019-02-08T01:24:13.986Z,75.40
2019-02-08T01:26:40.289Z,76.20
2019-02-08T01:29:06.556Z,75.40
2019-02-08T01:31:33.241Z,75.70
2019-02-08T01:33:59.562Z,76.70
2019-02-08T01:36:25.856Z,76.90
2019-02-08T01:38:52.230Z,76.40
2019-02-08T01:41:18.794Z,76.40
2019-02-08T01:43:45.097Z,76.80
2019-02-08T01:46:11.510Z,77.00
2019-02-08T01:48:37.806Z,76.80
2019-02-08T01:51:04.514Z,76.80
2019-02-08T01:53:30.929Z,76.80
2019-02-08T01:55:57.374Z,76.80
2019-02-08T01:58:24.154Z,76.40
2019-02-08T02:00:50.529Z,76.00
2019-02-08T02:03:16.830Z,76.20
2019-02-08T02:05:43.398Z,76.30
2019-02-08T02:08:09.731Z,76.20
2019-02-08T02:10:41.586Z,76.60
2019-02-08T02:13:08.623Z,76.60
2019-02-08T02:15:37.114Z,76.60
2019-02-08T02:18:04.249Z,77.60
2019-02-08T02:20:36.780Z,76.80
2019-02-08T02:23:04.712Z,77.10
2019-02-08T02:25:31.362Z,77.00
2019-02-08T02:27:57.776Z,77.20
2019-02-08T02:30:27.032Z,77.30
2019-02-08T02:32:53.507Z,77.70
2019-02-08T02:35:20.359Z,77.40
2019-02-08T02:37:46.668Z,77.50
2019-02-08T02:40:19.258Z,78.60
2019-02-08T02:42:45.588Z,78.10
2019-02-08T02:45:20.230Z,78.20
2019-02-08T02:47:46.541Z,78.50
2019-02-08T02:50:13.175Z,78.40
2019-02-08T02:52:39.832Z,78.60
2019-02-08T02:55:10.043Z,79.10
2019-02-08T02:57:36.471Z,78.80
2019-02-08T03:00:12.734Z,79.50
2019-02-08T03:02:40.232Z,80.00
2019-02-08T03:05:06.459Z,80.10
2019-02-08T03:07:32.853Z,80.30
2019-02-08T03:09:59.333Z,80.40
2019-02-08T03:12:25.661Z,80.80
2019-02-08T03:14:52.992Z,80.70
2019-02-08T03:17:19.287Z,81.10
2019-02-08T03:19:45.629Z,81.40
2019-02-08T03:22:11.927Z,81.40
2019-02-08T03:24:38.219Z,81.30
2019-02-08T03:27:04.627Z,81.20
2019-02-08T03:29:31.156Z,81.40
2019-02-08T03:31:57.809Z,81.30
2019-02-08T03:34:24.113Z,81.40
2019-02-08T03:36:50.503Z,81.70
2019-02-08T03:39:16.824Z,81.40
2019-02-08T03:41:43.226Z,81.30
2019-02-08T03:44:09.665Z,81.60
2019-02-08T03:46:35.921Z,81.70
2019-02-08T03:49:02.620Z,81.80
2019-02-08T03:51:29.055Z,81.90
2019-02-08T03:53:57.070Z,81.70
2019-02-08T03:56:23.453Z,81.90
2019-02-08T03:58:49.792Z,81.70
2019-02-08T04:01:16.216Z,82.00
2019-02-08T04:03:42.548Z,81.60
2019-02-08T04:06:09.079Z,82.00
2019-02-08T04:08:35.613Z,81.90
2019-02-08T04:11:01.902Z,81.90
2019-02-08T04:13:28.208Z,82.20
2019-02-08T04:15:54.703Z,82.00
2019-02-08T04:18:21.164Z,82.10
2019-02-08T04:20:47.456Z,82.20
2019-02-08T04:23:13.775Z,82.00
2019-02-08T04:25:40.070Z,82.10
2019-02-08T04:28:06.664Z,82.10
2019-02-08T04:30:53.169Z,82.10
2019-02-08T04:33:19.612Z,82.10
2019-02-08T04:35:45.866Z,82.00
2019-02-08T04:38:12.166Z,82.40
2019-02-08T04:40:38.804Z,82.40
2019-02-08T04:43:05.107Z,82.30
2019-02-08T04:45:31.458Z,82.20
2019-02-08T04:47:57.890Z,82.50
2019-02-08T04:50:28.605Z,82.40
2019-02-08T04:52:56.201Z,82.20
2019-02-08T04:55:22.721Z,82.10
2019-02-08T04:57:48.947Z,82.20
2019-02-08T05:00:29.790Z,82.20
2019-02-08T05:02:56.175Z,82.20
2019-02-08T05:05:22.879Z,82.20
2019-02-08T05:07:49.219Z,82.20
2019-02-08T05:10:21.500Z,82.40
2019-02-08T05:12:48.123Z,82.00
2019-02-08T05:15:14.953Z,82.30
2019-02-08T05:17:41.399Z,83.00
2019-02-08T05:20:11.517Z,82.30
2019-02-08T05:22:37.949Z,82.70
2019-02-08T05:25:04.989Z,82.50
2019-02-08T05:27:31.653Z,82.90
2019-02-08T05:29:58.288Z,82.60
2019-02-08T05:32:24.602Z,82.40
2019-02-08T05:34:50.940Z,82.60
2019-02-08T05:37:17.889Z,82.70
2019-02-08T05:39:46.046Z,82.80
2019-02-08T05:42:12.284Z,82.80
2019-02-08T05:44:38.903Z,82.60
2019-02-08T05:47:05.552Z,82.80
2019-02-08T05:49:31.793Z,83.10
2019-02-08T05:51:58.111Z,82.90
2019-02-08T05:54:24.378Z,82.90
2019-02-08T05:56:50.736Z,82.90
2019-02-08T05:59:17.066Z,82.70
2019-02-08T06:01:43.478Z,83.10
2019-02-08T06:04:10.303Z,83.10
2019-02-08T06:06:36.640Z,83.40
2019-02-08T06:09:06.745Z,83.10
2019-02-08T06:11:33.189Z,83.00
2019-02-08T06:13:59.660Z,83.10
2019-02-08T06:16:26.351Z,83.10
2019-02-08T06:18:54.841Z,83.10
2019-02-08T06:21:21.493Z,83.20
2019-02-08T06:23:47.951Z,83.20
2019-02-08T06:26:14.277Z,83.20
2019-02-08T06:28:40.658Z,82.90
2019-02-08T06:31:07.039Z,82.70
2019-02-08T06:33:33.268Z,81.80
2019-02-08T06:35:59.671Z,82.00
2019-02-08T06:38:25.970Z,82.20
2019-02-08T06:40:52.259Z,82.00
2019-02-08T06:43:18.699Z,82.00
2019-02-08T06:45:45.028Z,82.00
2019-02-08T06:48:11.968Z,82.00
2019-02-08T06:50:38.303Z,82.00
2019-02-08T06:53:05.013Z,82.20
2019-02-08T06:55:31.468Z,82.20
2019-02-08T06:58:08.857Z,82.20
2019-02-08T07:00:55.056Z,82.00
2019-02-08T07:03:38.691Z,82.00
2019-02-08T07:06:09.633Z,81.40
2019-02-08T07:08:54.813Z,81.80
2019-02-08T07:11:29.440Z,82.00
2019-02-08T07:14:00.674Z,82.00
2019-02-08T07:16:37.619Z,82.10
2019-02-08T07:19:14.228Z,81.90
2019-02-08T07:21:59.192Z,82.00
2019-02-08T07:24:36.480Z,81.40
2019-02-08T07:27:05.242Z,81.30
2019-02-08T07:29:33.443Z,82.10
2019-02-08T07:32:04.622Z,82.00
2019-02-08T07:34:39.000Z,81.80
2019-02-08T07:37:07.373Z,82.10
2019-02-08T07:39:53.486Z,82.10
2019-02-08T07:42:29.635Z,81.90
2019-02-08T07:45:16.856Z,81.30
2019-02-08T07:47:45.549Z,81.80
2019-02-08T07:50:17.554Z,81.40
2019-02-08T07:52:45.866Z,81.50
2019-02-08T07:55:17.886Z,81.90
2019-02-08T07:57:46.220Z,81.60
2019-02-08T08:00:33.508Z,81.50
2019-02-08T08:03:19.756Z,81.80
2019-02-08T08:06:05.231Z,81.10
2019-02-08T08:08:42.831Z,81.90
2019-02-08T08:11:14.368Z,82.80
2019-02-08T08:13:42.641Z,81.80
2019-02-08T08:16:11.428Z,81.90
2019-02-08T08:18:42.979Z,82.10
2019-02-08T08:21:28.312Z,81.60
2019-02-08T08:24:03.203Z,81.80
2019-02-08T08:26:43.963Z,81.90
2019-02-08T08:29:21.457Z,81.90
2019-02-08T08:31:52.040Z,81.70
2019-02-08T08:34:38.786Z,81.90
2019-02-08T08:37:24.801Z,81.30
2019-02-08T08:40:27.233Z,81.10
2019-02-08T08:43:29.436Z,81.70
2019-02-08T08:46:02.958Z,81.80
2019-02-08T08:48:41.849Z,81.50
2019-02-08T08:51:27.141Z,82.30
2019-02-08T08:54:14.960Z,82.40
2019-02-08T08:57:05.764Z,82.00
2019-02-08T08:59:52.732Z,81.90
2019-02-08T09:02:34.979Z,82.20
2019-02-08T09:05:23.330Z,81.90
2019-02-08T09:08:02.658Z,82.00
2019-02-08T09:10:52.973Z,82.00
2019-02-08T09:13:46.321Z,82.30
2019-02-08T09:16:50.126Z,81.30
2019-02-08T09:19:40.506Z,81.70
2019-02-08T09:22:36.667Z,81.40
2019-02-08T09:25:24.939Z,81.60
2019-02-08T09:28:10.272Z,81.30
2019-02-08T09:30:46.509Z,81.00
2019-02-08T09:33:25.498Z,80.70
2019-02-08T09:36:17.173Z,81.20
2019-02-08T09:39:03.849Z,79.80
2019-02-08T09:41:48.961Z,80.70
2019-02-08T09:44:28.436Z,81.00
2019-02-08T09:47:15.413Z,80.50
2019-02-08T09:50:17.911Z,80.50
2019-02-08T09:53:05.009Z,80.90
2019-02-08T09:55:44.259Z,80.80
2019-02-08T09:58:29.493Z,81.10
2019-02-08T10:01:19.411Z,81.00
2019-02-08T10:03:55.762Z,81.30
2019-02-08T10:06:40.935Z,80.90
2019-02-08T10:09:44.649Z,80.30
2019-02-08T10:12:31.452Z,80.30
2019-02-08T10:15:20.126Z,80.50
2019-02-08T10:18:08.963Z,80.30
2019-02-08T10:21:06.833Z,80.00
2019-02-08T10:23:57.037Z,80.70
2019-02-08T10:26:45.267Z,80.90
2019-02-08T10:29:39.757Z,80.90
2019-02-08T10:32:27.803Z,81.00
2019-02-08T10:35:14.817Z,80.60
2019-02-08T10:38:01.951Z,79.80
2019-02-08T10:41:01.438Z,81.00
2019-02-08T10:44:02.175Z,81.30
2019-02-08T10:46:38.015Z,81.30
2019-02-08T10:49:32.927Z,81.40
2019-02-08T10:52:24.795Z,81.80
2019-02-08T10:55:20.790Z,81.80
2019-02-08T10:58:22.848Z,81.80
2019-02-08T11:01:11.300Z,81.60
2019-02-08T11:03:56.373Z,81.80
2019-02-08T11:06:32.427Z,81.80
2019-02-08T11:09:22.265Z,81.40
2019-02-08T11:12:26.127Z,81.00
2019-02-08T11:15:19.278Z,81.00
2019-02-08T11:18:04.535Z,80.00
2019-02-08T11:20:31.090Z,79.40
2019-02-08T11:22:57.362Z,79.50
2019-02-08T11:25:23.957Z,79.10
2019-02-08T11:27:50.195Z,79.00
2019-02-08T11:30:17.224Z,78.40
2019-02-08T11:32:44.067Z,79.10
2019-02-08T11:35:12.855Z,78.60
2019-02-08T11:37:39.230Z,78.30
2019-02-08T11:40:09.371Z,78.60
2019-02-08T11:42:37.109Z,78.70
2019-02-08T11:45:07.513Z,78.00
2019-02-08T11:47:34.031Z,79.10
2019-02-08T11:50:00.359Z,78.80
2019-02-08T11:52:26.894Z,79.20
2019-02-08T11:54:53.191Z,79.10
2019-02-08T11:57:20.102Z,79.00
2019-02-08T11:59:46.377Z,79.00
2019-02-08T12:02:14.610Z,78.10
2019-02-08T12:04:41.343Z,77.60
2019-02-08T12:07:07.772Z,77.00
2019-02-08T12:09:34.105Z,78.00
2019-02-08T12:12:00.409Z,78.00
2019-02-08T12:14:26.763Z,77.50
2019-02-08T12:16:53.111Z,76.70
2019-02-08T12:19:19.360Z,77.00
2019-02-08T12:21:45.754Z,77.90
2019-02-08T12:24:12.289Z,77.70
2019-02-08T12:26:38.620Z,77.00
2019-02-08T12:29:05.384Z,77.70
2019-02-08T12:31:31.894Z,77.40
2019-02-08T12:33:58.460Z,76.20
2019-02-08T12:36:24.843Z,76.50
2019-02-08T12:38:51.523Z,77.10
2019-02-08T12:41:17.933Z,74.70
2019-02-08T12:43:45.489Z,75.80
2019-02-08T12:46:11.821Z,75.30
2019-02-08T12:48:38.064Z,74.80
2019-02-08T12:51:04.592Z,74.60
2019-02-08T12:53:30.896Z,74.30
2019-02-08T12:55:57.299Z,75.00
2019-02-08T12:58:23.680Z,73.80
2019-02-08T13:00:50.096Z,74.10
2019-02-08T13:03:16.446Z,73.70
2019-02-08T13:05:42.777Z,73.80
2019-02-08T13:08:09.411Z,74.10
2019-02-08T13:10:35.846Z,74.20
2019-02-08T13:13:02.479Z,75.00
2019-02-08T13:15:29.227Z,74.80
2019-02-08T13:17:55.552Z,74.10
2019-02-08T13:20:22.843Z,74.30
2019-02-08T13:22:49.296Z,74.90
2019-02-08T13:25:16.684Z,74.30
2019-02-08T13:27:43.274Z,74.40
2019-02-08T13:30:13.446Z,75.00
2019-02-08T13:32:39.724Z,75.40
2019-02-08T13:35:06.314Z,73.20
2019-02-08T13:37:32.647Z,74.60
2019-02-08T13:39:58.897Z,75.80
2019-02-08T13:42:25.504Z,74.90
2019-02-08T13:44:51.838Z,73.80
2019-02-08T13:47:18.167Z,74.50
2019-02-08T13:49:44.821Z,73.90
2019-02-08T13:52:11.339Z,73.20
2019-02-08T13:54:37.646Z,74.10
2019-02-08T13:57:03.919Z,74.10
2019-02-08T13:59:30.632Z,73.30
2019-02-08T14:01:56.917Z,74.10
2019-02-08T14:04:23.304Z,73.90
2019-02-08T14:06:49.591Z,73.40
2019-02-08T14:09:16.061Z,74.10
2019-02-08T14:11:42.904Z,73.40
2019-02-08T14:14:09.336Z,74.00
2019-02-08T14:16:35.740Z,74.10
2019-02-08T14:19:03.128Z,74.00
2019-02-08T14:21:29.453Z,73.10
2019-02-08T14:23:56.572Z,73.70
2019-02-08T14:26:24.197Z,73.50
2019-02-08T14:28:54.254Z,73.90
2019-02-08T14:31:21.082Z,74.10
2019-02-08T14:33:47.383Z,74.00
2019-02-08T14:36:13.886Z,73.70
2019-02-08T14:38:40.318Z,73.70
2019-02-08T14:41:06.638Z,73.30
2019-02-08T14:43:32.953Z,73.80
2019-02-08T14:45:59.416Z,73.90
2019-02-08T14:48:25.741Z,73.50
2019-02-08T14:50:52.175Z,74.00
2019-02-08T14:53:18.861Z,73.00
2019-02-08T14:55:45.244Z,73.70
2019-02-08T14:58:11.850Z,73.00
2019-02-08T15:00:39.646Z,74.00
2019-02-08T15:03:06.282Z,73.80
2019-02-08T15:05:32.688Z,73.90
2019-02-08T15:07:59.391Z,74.00
2019-02-08T15:10:32.239Z,73.80
2019-02-08T15:13:00.372Z,74.00
2019-02-08T15:15:27.343Z,73.60
2019-02-08T15:17:53.736Z,73.50
2019-02-08T15:20:25.960Z,73.70
2019-02-08T15:22:52.284Z,74.00
2019-02-08T15:25:18.820Z,74.50
2019-02-08T15:27:45.709Z,73.80
2019-02-08T15:30:16.882Z,74.40
2019-02-08T15:32:43.255Z,73.90
2019-02-08T15:35:12.957Z,74.30
2019-02-08T15:37:39.280Z,73.70
2019-02-08T15:40:16.241Z,74.00
2019-02-08T15:42:42.613Z,73.90
2019-02-08T15:45:15.737Z,74.10
2019-02-08T15:47:43.242Z,74.10
2019-02-08T15:50:11.046Z,73.90
2019-02-08T15:52:37.534Z,73.90
2019-02-08T15:55:08.261Z,74.50
2019-02-08T15:57:34.599Z,74.30
2019-02-08T16:00:00.812Z,74.00
2019-02-08T16:02:27.321Z,74.70
2019-02-08T16:04:53.896Z,74.30
2019-02-08T16:07:20.226Z,73.70
2019-02-08T16:09:46.545Z,73.70
2019-02-08T16:12:12.891Z,74.10
2019-02-08T16:14:45.270Z,73.80
2019-02-08T16:17:12.002Z,72.60
2019-02-08T16:19:38.639Z,73.70
2019-02-08T16:22:05.892Z,73.90
2019-02-08T16:24:32.150Z,74.10
2019-02-08T16:26:58.736Z,73.10
2019-02-08T16:29:25.083Z,73.90
2019-02-08T16:31:51.517Z,73.80
2019-02-08T16:34:17.795Z,74.00
2019-02-08T16:36:44.484Z,73.90
2019-02-08T16:39:11.020Z,72.80
2019-02-08T16:41:37.248Z,73.70
2019-02-08T16:44:04.603Z,74.10
2019-02-08T16:46:30.931Z,73.50
2019-02-08T16:48:57.162Z,73.00
2019-02-08T16:51:43.595Z,73.40
2019-02-08T16:54:10.096Z,72.60
2019-02-08T16:56:36.326Z,73.60
2019-02-08T16:59:03.329Z,73.80
2019-02-08T17:01:29.746Z,74.00
2019-02-08T17:03:57.781Z,73.40
2019-02-08T17:06:24.281Z,73.70
2019-02-08T17:08:50.638Z,73.90
2019-02-08T17:11:16.893Z,73.40
2019-02-08T17:13:43.296Z,73.40
2019-02-08T17:16:09.715Z,73.70
2019-02-08T17:18:36.060Z,73.50
2019-02-08T17:21:02.316Z,74.20
2019-02-08T17:23:28.601Z,74.20
2019-02-08T17:25:54.948Z,74.20
2019-02-08T17:28:22.962Z,73.70
2019-02-08T17:30:49.350Z,73.00
2019-02-08T17:33:16.006Z,73.60
2019-02-08T17:35:42.629Z,73.20
2019-02-08T17:38:08.898Z,73.90
2019-02-08T17:40:46.909Z,73.10
2019-02-08T17:43:13.328Z,73.30
2019-02-08T17:45:39.829Z,73.30
2019-02-08T17:48:09.230Z,73.90
2019-02-08T17:50:35.763Z,73.60
2019-02-08T17:53:02.132Z,73.40
2019-02-08T17:55:29.659Z,74.10
2019-02-08T17:58:03.348Z,74.40
2019-02-08T18:00:35.738Z,74.10
2019-02-08T18:03:02.395Z,74.00
2019-02-08T18:05:28.709Z,73.90
2019-02-08T18:07:54.915Z,74.30
2019-02-08T18:10:23.322Z,73.80
2019-02-08T18:12:50.067Z,74.00
2019-02-08T18:15:18.942Z,73.20
2019-02-08T18:17:45.578Z,73.30
2019-02-08T18:20:16.326Z,72.80
2019-02-08T18:22:42.733Z,73.80
2019-02-08T18:25:09.633Z,73.90
2019-02-08T18:27:35.909Z,73.20
2019-02-08T18:30:04.714Z,73.20
2019-02-08T18:32:30.993Z,73.60
2019-02-08T18:34:57.354Z,73.20
2019-02-08T18:37:23.590Z,73.90
2019-02-08T18:39:49.919Z,73.50
2019-02-08T18:42:16.242Z,73.60
2019-02-08T18:44:42.572Z,73.50
2019-02-08T18:47:08.776Z,73.80
2019-02-08T18:49:35.132Z,73.70
2019-02-08T18:52:01.461Z,73.70
2019-02-08T18:54:27.894Z,73.80
2019-02-08T18:56:54.838Z,73.60
2019-02-08T18:59:21.183Z,73.80
2019-02-08T19:01:47.470Z,73.50
2019-02-08T19:04:13.870Z,74.10
2019-02-08T19:06:40.184Z,73.40
2019-02-08T19:09:07.002Z,73.50
2019-02-08T19:11:33.586Z,74.10
2019-02-08T19:13:59.907Z,73.80
2019-02-08T19:16:26.299Z,73.40
2019-02-08T19:18:53.966Z,73.20
2019-02-08T19:21:20.423Z,73.80
2019-02-08T19:23:48.447Z,73.70
2019-02-08T19:26:14.752Z,73.80
2019-02-08T19:28:41.126Z,73.80
2019-02-08T19:31:07.563Z,74.30
2019-02-08T19:33:33.891Z,73.70
2019-02-08T19:36:00.221Z,73.70
2019-02-08T19:38:26.440Z,73.60
2019-02-08T19:40:53.101Z,74.00
2019-02-08T19:43:19.428Z,73.70
2019-02-08T19:45:45.847Z,73.10
2019-02-08T19:48:12.281Z,73.70
2019-02-08T19:50:44.566Z,73.70
2019-02-08T19:53:11.029Z,73.10
2019-02-08T19:55:37.722Z,73.70
2019-02-08T19:58:05.839Z,73.10
2019-02-08T20:00:37.346Z,73.10
2019-02-08T20:03:05.022Z,73.20
2019-02-08T20:05:31.757Z,72.80
2019-02-08T20:07:58.046Z,73.40
2019-02-08T20:10:29.853Z,73.30
2019-02-08T20:12:56.989Z,73.60
2019-02-08T20:15:23.748Z,72.90
2019-02-08T20:17:50.141Z,72.60
2019-02-08T20:20:17.250Z,72.50
2019-02-08T20:22:43.935Z,73.40
2019-02-08T20:25:14.083Z,73.50
2019-02-08T20:27:40.603Z,73.70
2019-02-08T20:30:17.889Z,73.90
2019-02-08T20:32:44.381Z,74.10
2019-02-08T20:35:14.234Z,73.90
2019-02-08T20:37:40.665Z,73.90
2019-02-08T20:40:18.158Z,75.00
2019-02-08T20:42:44.588Z,74.50
2019-02-08T20:45:15.914Z,74.90
2019-02-08T20:47:44.059Z,74.50
2019-02-08T20:50:11.055Z,74.90
2019-02-08T20:52:37.385Z,75.10
2019-02-08T20:55:06.965Z,75.50
2019-02-08T20:57:33.424Z,75.90
2019-02-08T20:59:59.903Z,76.10
2019-02-08T21:02:26.328Z,76.50
2019-02-08T21:04:54.993Z,76.40
2019-02-08T21:07:21.516Z,76.80
2019-02-08T21:09:47.948Z,77.00
2019-02-08T21:12:14.735Z,77.10
2019-02-08T21:14:41.123Z,77.50
2019-02-08T21:17:07.548Z,77.40
2019-02-08T21:19:34.083Z,77.80
2019-02-08T21:22:00.379Z,77.90
2019-02-08T21:24:26.683Z,78.30
2019-02-08T21:26:53.084Z,78.20
2019-02-08T21:29:19.377Z,78.40
2019-02-08T21:31:45.692Z,78.30
2019-02-08T21:34:12.066Z,78.20
2019-02-08T21:36:39.227Z,78.30
2019-02-08T21:39:05.954Z,78.30
2019-02-08T21:41:32.286Z,77.90
2019-02-08T21:43:58.512Z,77.70
2019-02-08T21:46:25.950Z,77.10
2019-02-08T21:48:52.299Z,77.10
2019-02-08T21:51:18.752Z,77.60
2019-02-08T21:53:45.164Z,77.90
2019-02-08T21:56:11.663Z,77.80
2019-02-08T21:58:38.409Z,78.00
2019-02-08T22:01:05.117Z,77.40
2019-02-08T22:03:31.731Z,77.90
2019-02-08T22:06:19.857Z,78.00
2019-02-08T22:08:46.398Z,75.90
2019-02-08T22:11:12.578Z,77.90
2019-02-08T22:13:40.107Z,78.00
2019-02-08T22:16:06.739Z,78.10
2019-02-08T22:18:33.368Z,78.30
2019-02-08T22:20:59.773Z,78.50
2019-02-08T22:23:26.318Z,78.30
2019-02-08T22:25:52.967Z,78.70
2019-02-08T22:28:20.431Z,78.70
2019-02-08T22:30:46.742Z,78.80
2019-02-08T22:33:13.002Z,79.00
2019-02-08T22:35:39.714Z,79.20
2019-02-08T22:38:08.559Z,79.50
2019-02-08T22:40:35.126Z,79.50
2019-02-08T22:43:01.573Z,79.50
2019-02-08T22:45:36.641Z,79.80
2019-02-08T22:48:04.069Z,79.90
2019-02-08T22:50:30.380Z,79.90
2019-02-08T22:52:57.452Z,80.00
2019-02-08T22:55:29.957Z,80.10
2019-02-08T22:57:56.749Z,80.20
2019-02-08T23:00:43.871Z,80.20
2019-02-08T23:03:17.158Z,80.50
2019-02-08T23:05:45.660Z,80.20
2019-02-08T23:08:11.770Z,80.30
2019-02-08T23:10:38.763Z,80.20
2019-02-08T23:13:07.385Z,80.50
2019-02-08T23:15:33.835Z,80.80
2019-02-08T23:18:00.091Z,80.60
2019-02-08T23:20:26.598Z,80.80
2019-02-08T23:22:52.880Z,80.80
2019-02-08T23:25:19.478Z,81.00
2019-02-08T23:27:47.991Z,81.00
2019-02-08T23:30:22.668Z,81.00
2019-02-08T23:32:49.033Z,81.20
2019-02-08T23:35:15.710Z,81.00
2019-02-08T23:37:42.070Z,81.00
2019-02-08T23:40:09.956Z,81.20
2019-02-08T23:42:36.371Z,81.40
2019-02-08T23:45:08.844Z,81.20
2019-02-08T23:47:35.173Z,81.30
2019-02-08T23:50:01.445Z,81.60
2019-02-08T23:52:27.834Z,81.60
2019-02-08T23:54:54.984Z,81.70
2019-02-08T23:57:22.080Z,81.80
2019-02-08T23:59:48.803Z,81.90
